Time;durP1;ratioP1;P1;durP2;ratioP2;P2;SDS_P1;SDS_P2;PMS_P1;PMS_P2;Temp;Humidity;BMP_temperature;BMP_pressure;BME280_temperature;BME280_humidity;BME280_pressure;Samples;Min_cycle;Max_cycle;Signal;HPM_P1;HPM_P2
2022/04/13 00:01:31;;;;;;;;;;;13.90;90.30;;;;;;8389845;28;19925;-75
2022/04/13 00:05:33;;;;;;;;;;;13.80;90.30;;;;;;8383464;28;19932;-75
2022/04/13 00:09:34;;;;;;;;;;;13.80;90.30;;;;;;8389835;28;19933;-75
2022/04/13 00:13:36;;;;;;;;;;;13.70;90.40;;;;;;8380303;28;19947;-75
2022/04/13 00:17:38;;;;;;;;;;;13.70;90.50;;;;;;8380517;28;20462;-75
2022/04/13 00:21:40;;;;;;;;;;;13.60;90.50;;;;;;8391873;28;19931;-75
2022/04/13 00:25:43;;;;;;;;;;;13.50;90.50;;;;;;8393678;28;19928;-74
2022/04/13 00:29:44;;;;;;;;;;;13.50;90.60;;;;;;8397373;28;20372;-74
2022/04/13 00:33:46;;;;;;;;;;;13.40;90.70;;;;;;8395516;28;19933;-75
2022/04/13 00:37:48;;;;;;;;;;;13.40;90.80;;;;;;8391598;28;19924;-75
2022/04/13 00:41:56;;;;;;;;;;;13.20;90.80;;;;;;8387748;28;19947;-75
2022/04/13 00:45:58;;;;;;;;;;;13.20;91.00;;;;;;8393958;28;19925;-74
2022/04/13 00:50:00;;;;;;;;;;;13.20;91.00;;;;;;8393680;28;19924;-75
2022/04/13 00:54:02;;;;;;;;;;;13.10;91.00;;;;;;8406908;28;19928;-74
2022/04/13 00:58:05;;;;;;;;;;;13.10;91.10;;;;;;8391956;28;19925;-75
2022/04/13 01:02:07;;;;;;;;;;;13.00;91.10;;;;;;8390699;28;19936;-75
2022/04/13 01:06:09;;;;;;;;;;;13.00;91.20;;;;;;8390569;28;19925;-75
2022/04/13 01:10:11;;;;;;;;;;;12.90;91.10;;;;;;8391429;28;19940;-75
2022/04/13 01:14:13;;;;;;;;;;;12.90;91.20;;;;;;8390536;28;19924;-75
2022/04/13 01:18:18;;;;;;;;;;;12.80;91.20;;;;;;8392696;28;19924;-75
2022/04/13 01:22:23;;;;;;;;;;;12.80;91.20;;;;;;8378127;28;19931;-74
2022/04/13 01:26:25;;;;;;;;;;;12.70;91.20;;;;;;8384330;28;19924;-74
2022/04/13 01:30:27;;;;;;;;;;;12.60;91.20;;;;;;8387339;28;19935;-75
2022/04/13 01:34:28;;;;;;;;;;;12.60;91.40;;;;;;8387365;28;19940;-74
2022/04/13 01:38:30;;;;;;;;;;;12.60;91.50;;;;;;8383467;28;19932;-74
2022/04/13 01:42:32;;;;;;;;;;;12.50;91.50;;;;;;8392230;28;19928;-74
2022/04/13 01:46:34;;;;;;;;;;;12.50;91.90;;;;;;8387752;28;19932;-74
2022/04/13 01:50:35;;;;;;;;;;;12.50;91.80;;;;;;8388768;28;20599;-75
2022/04/13 01:54:37;;;;;;;;;;;12.60;91.90;;;;;;8388088;28;20384;-75
2022/04/13 01:58:39;;;;;;;;;;;12.50;92.00;;;;;;8390449;28;19932;-74
2022/04/13 02:02:40;;;;;;;;;;;12.50;92.00;;;;;;8389513;28;19935;-75
2022/04/13 02:11:46;;;;;;;;;;;12.50;92.30;;;;;;8368613;28;19970;-76
2022/04/13 02:15:48;;;;;;;;;;;12.40;92.30;;;;;;8391541;28;19924;-75
2022/04/13 02:19:50;;;;;;;;;;;12.40;92.40;;;;;;8385897;28;19933;-75
2022/04/13 02:23:51;;;;;;;;;;;12.40;92.70;;;;;;8393914;28;19925;-75
2022/04/13 02:27:53;;;;;;;;;;;12.40;92.90;;;;;;8387392;28;19925;-75
2022/04/13 02:31:55;;;;;;;;;;;12.40;92.90;;;;;;8388839;28;19925;-75
2022/04/13 02:35:56;;;;;;;;;;;12.40;93.00;;;;;;8396288;28;20011;-75
2022/04/13 02:39:58;;;;;;;;;;;12.40;93.00;;;;;;8389717;28;19978;-75
2022/04/13 02:44:00;;;;;;;;;;;12.40;93.30;;;;;;8394591;28;19931;-74
2022/04/13 02:48:01;;;;;;;;;;;12.30;93.00;;;;;;8392363;28;19969;-74
2022/04/13 02:52:03;;;;;;;;;;;12.30;93.10;;;;;;8394484;28;19940;-74
2022/04/13 02:56:05;;;;;;;;;;;12.20;93.10;;;;;;8429097;28;19940;-74
2022/04/13 03:00:07;;;;;;;;;;;12.00;93.00;;;;;;8393899;28;19929;-74
2022/04/13 03:04:09;;;;;;;;;;;11.90;93.10;;;;;;8390084;28;19925;-75
2022/04/13 03:08:10;;;;;;;;;;;11.80;93.20;;;;;;8397009;28;19924;-74
2022/04/13 03:12:12;;;;;;;;;;;11.80;93.30;;;;;;8391836;28;19935;-74
2022/04/13 03:16:14;;;;;;;;;;;11.80;93.30;;;;;;8387112;28;19946;-74
2022/04/13 03:20:15;;;;;;;;;;;11.80;93.50;;;;;;8390201;28;20881;-74
2022/04/13 03:24:17;;;;;;;;;;;11.70;93.50;;;;;;8389990;28;19929;-74
2022/04/13 03:28:23;;;;;;;;;;;11.70;93.70;;;;;;8397612;28;19932;-74
2022/04/13 03:32:25;;;;;;;;;;;11.60;93.70;;;;;;8391926;28;19924;-75
2022/04/13 03:36:27;;;;;;;;;;;11.60;93.80;;;;;;8389882;28;19932;-74
2022/04/13 03:40:28;;;;;;;;;;;11.50;93.90;;;;;;8403020;28;19932;-74
2022/04/13 03:44:30;;;;;;;;;;;11.50;94.00;;;;;;8402101;28;19924;-74
2022/04/13 03:48:32;;;;;;;;;;;11.50;94.10;;;;;;8404597;28;20240;-74
2022/04/13 03:52:36;;;;;;;;;;;11.40;94.10;;;;;;8395561;28;20264;-75
2022/04/13 03:56:38;;;;;;;;;;;11.40;94.20;;;;;;8403789;28;19932;-74
2022/04/13 04:00:40;;;;;;;;;;;11.40;94.30;;;;;;8403348;28;19925;-75
2022/04/13 04:04:41;;;;;;;;;;;11.40;94.40;;;;;;8397334;28;19925;-74
2022/04/13 04:08:43;;;;;;;;;;;11.40;94.50;;;;;;8392517;28;19925;-74
2022/04/13 04:12:45;;;;;;;;;;;11.40;94.40;;;;;;8396704;28;19940;-75
2022/04/13 04:16:46;;;;;;;;;;;11.40;94.70;;;;;;8396725;28;19924;-74
2022/04/13 04:20:48;;;;;;;;;;;11.40;94.80;;;;;;8398663;28;19972;-75
2022/04/13 04:24:50;;;;;;;;;;;11.40;94.90;;;;;;8397770;28;19963;-75
2022/04/13 04:28:51;;;;;;;;;;;11.40;95.00;;;;;;8395657;28;19928;-75
2022/04/13 04:32:53;;;;;;;;;;;11.40;95.10;;;;;;8387125;28;20008;-75
2022/04/13 04:36:55;;;;;;;;;;;11.40;95.20;;;;;;8387852;28;19931;-75
2022/04/13 04:40:56;;;;;;;;;;;11.30;95.30;;;;;;8394071;28;19925;-74
2022/04/13 04:44:58;;;;;;;;;;;11.30;95.50;;;;;;8391936;28;19931;-75
2022/04/13 04:49:00;;;;;;;;;;;11.30;95.60;;;;;;8387583;28;19925;-75
2022/04/13 04:53:02;;;;;;;;;;;11.30;95.80;;;;;;8381334;28;19924;-75
2022/04/13 04:57:04;;;;;;;;;;;11.30;96.00;;;;;;8382102;28;19924;-75
2022/04/13 05:01:09;;;;;;;;;;;11.40;96.30;;;;;;8378373;28;20295;-75
2022/04/13 05:05:10;;;;;;;;;;;11.40;96.40;;;;;;8389758;28;19924;-75
2022/04/13 05:09:12;;;;;;;;;;;11.40;96.50;;;;;;8387952;28;20343;-75
2022/04/13 05:13:14;;;;;;;;;;;11.40;96.80;;;;;;8375852;28;19983;-75
2022/04/13 05:17:16;;;;;;;;;;;11.50;96.90;;;;;;8383287;28;19929;-75
2022/04/13 05:21:18;;;;;;;;;;;11.50;97.10;;;;;;8385981;28;19940;-75
2022/04/13 05:25:19;;;;;;;;;;;11.60;97.60;;;;;;8389109;28;19931;-75
2022/04/13 05:29:24;;;;;;;;;;;11.60;97.50;;;;;;8375005;28;19947;-74
2022/04/13 05:33:25;;;;;;;;;;;11.70;97.60;;;;;;8386859;28;19936;-74
2022/04/13 05:37:27;;;;;;;;;;;11.80;97.90;;;;;;8386477;28;19955;-75
2022/04/13 05:41:29;;;;;;;;;;;11.90;98.20;;;;;;8363563;28;19924;-74
2022/04/13 05:45:31;;;;;;;;;;;11.90;98.30;;;;;;8386695;28;19924;-75
2022/04/13 05:49:35;;;;;;;;;;;12.00;98.70;;;;;;8390368;28;19925;-75
2022/04/13 05:53:38;;;;;;;;;;;12.10;98.90;;;;;;8368209;28;20339;-75
2022/04/13 05:57:40;;;;;;;;;;;12.20;99.00;;;;;;8370750;28;19929;-74
2022/04/13 06:01:42;;;;;;;;;;;12.40;99.10;;;;;;8378208;28;19933;-75
2022/04/13 06:05:44;;;;;;;;;;;12.40;99.20;;;;;;8393738;28;19926;-75
2022/04/13 06:09:46;;;;;;;;;;;12.60;99.40;;;;;;8389629;28;19931;-75
2022/04/13 06:13:48;;;;;;;;;;;12.70;99.50;;;;;;8387542;28;19936;-75
2022/04/13 06:17:49;;;;;;;;;;;12.70;99.80;;;;;;8388274;28;19924;-74
2022/04/13 06:21:51;;;;;;;;;;;12.70;99.90;;;;;;8389643;28;19928;-74
2022/04/13 06:25:52;;;;;;;;;;;12.80;99.90;;;;;;8380321;28;19940;-74
2022/04/13 06:29:54;;;;;;;;;;;12.90;99.90;;;;;;8400971;28;20297;-74
2022/04/13 06:33:56;;;;;;;;;;;13.00;99.90;;;;;;8386301;28;19932;-74
2022/04/13 06:37:58;;;;;;;;;;;13.20;99.90;;;;;;8378357;28;19936;-74
2022/04/13 06:41:59;;;;;;;;;;;13.40;99.90;;;;;;8383822;28;19931;-74
2022/04/13 06:46:01;;;;;;;;;;;13.50;99.90;;;;;;8396075;28;19970;-74
2022/04/13 06:50:03;;;;;;;;;;;13.70;99.90;;;;;;8382901;28;19994;-74
2022/04/13 06:54:05;;;;;;;;;;;13.90;99.90;;;;;;8384842;28;19932;-74
2022/04/13 06:58:06;;;;;;;;;;;14.00;99.90;;;;;;8386784;28;19931;-74
2022/04/13 07:02:11;;;;;;;;;;;14.00;99.90;;;;;;8390209;28;19933;-74
2022/04/13 07:06:12;;;;;;;;;;;14.00;99.90;;;;;;8399641;28;20713;-74
2022/04/13 07:10:34;;;;;;;;;;;14.10;99.90;;;;;;8390259;28;20332;-74
2022/04/13 07:14:41;;;;;;;;;;;14.10;99.90;;;;;;8389170;28;19979;-74
2022/04/13 07:18:43;;;;;;;;;;;14.20;99.90;;;;;;8391084;28;20347;-74
2022/04/13 07:22:45;;;;;;;;;;;14.30;99.90;;;;;;8391925;28;20292;-74
2022/04/13 07:26:47;;;;;;;;;;;14.30;99.90;;;;;;8392208;28;20313;-75
2022/04/13 07:30:49;;;;;;;;;;;14.40;99.90;;;;;;8396799;28;20360;-75
2022/04/13 07:34:51;;;;;;;;;;;14.40;99.90;;;;;;8394737;28;19929;-74
2022/04/13 07:38:52;;;;;;;;;;;14.50;99.90;;;;;;8387983;28;19932;-74
2022/04/13 07:42:54;;;;;;;;;;;14.60;99.90;;;;;;8388417;28;19936;-75
2022/04/13 07:46:56;;;;;;;;;;;14.70;99.90;;;;;;8378620;28;20385;-74
2022/04/13 07:50:58;;;;;;;;;;;14.80;99.90;;;;;;8373522;28;19933;-74
2022/04/13 07:55:00;;;;;;;;;;;15.00;99.90;;;;;;8403591;27;19928;-74
2022/04/13 07:59:03;;;;;;;;;;;15.20;99.90;;;;;;8389264;28;20022;-74
2022/04/13 08:03:07;;;;;;;;;;;15.20;99.90;;;;;;8391191;28;19928;-74
2022/04/13 08:07:23;;;;;;;;;;;15.30;99.90;;;;;;8373685;28;19931;-74
2022/04/13 08:11:26;;;;;;;;;;;15.40;99.90;;;;;;8381908;28;20344;-75
2022/04/13 08:15:28;;;;;;;;;;;15.50;99.90;;;;;;8383825;28;19929;-75
2022/04/13 08:19:30;;;;;;;;;;;15.70;99.90;;;;;;8388789;28;19931;-74
2022/04/13 08:23:32;;;;;;;;;;;15.80;99.90;;;;;;8385864;28;19947;-75
2022/04/13 08:27:33;;;;;;;;;;;16.00;99.90;;;;;;8394286;28;19973;-74
2022/04/13 08:31:35;;;;;;;;;;;16.20;99.90;;;;;;8397797;28;19925;-74
2022/04/13 08:35:37;;;;;;;;;;;16.50;99.90;;;;;;8390862;28;19963;-75
2022/04/13 08:39:39;;;;;;;;;;;16.80;99.90;;;;;;8393716;28;19929;-75
2022/04/13 08:43:47;;;;;;;;;;;17.00;99.90;;;;;;8382868;28;19925;-75
2022/04/13 08:47:50;;;;;;;;;;;17.10;99.90;;;;;;8379805;28;19929;-74
2022/04/13 08:51:52;;;;;;;;;;;17.20;99.90;;;;;;8392841;28;19924;-74
2022/04/13 08:55:54;;;;;;;;;;;17.40;99.90;;;;;;8389005;28;20143;-75
2022/04/13 09:00:03;;;;;;;;;;;17.60;99.90;;;;;;8381534;28;19932;-74
2022/04/13 09:04:10;;;;;;;;;;;17.70;99.90;;;;;;8389614;28;19940;-74
2022/04/13 09:08:17;;;;;;;;;;;17.60;99.90;;;;;;8381706;28;19928;-75
2022/04/13 09:12:19;;;;;;;;;;;17.40;99.90;;;;;;8379545;28;19929;-74
2022/04/13 09:16:21;;;;;;;;;;;17.30;99.90;;;;;;8374584;28;19944;-74
2022/04/13 09:20:23;;;;;;;;;;;17.30;99.90;;;;;;8371331;28;19935;-74
2022/04/13 09:24:26;;;;;;;;;;;17.30;99.90;;;;;;8389151;28;19932;-75
2022/04/13 09:28:28;;;;;;;;;;;17.30;99.90;;;;;;8392835;28;19924;-75
2022/04/13 09:32:30;;;;;;;;;;;17.30;99.90;;;;;;8388571;28;19924;-74
2022/04/13 09:36:32;;;;;;;;;;;17.30;99.90;;;;;;8376940;28;20395;-75
2022/04/13 09:40:37;;;;;;;;;;;17.20;99.90;;;;;;8383227;28;19924;-74
2022/04/13 09:44:40;;;;;;;;;;;17.10;99.90;;;;;;8382964;28;19933;-74
2022/04/13 09:48:42;;;;;;;;;;;17.00;99.90;;;;;;8376608;28;19924;-74
2022/04/13 09:52:43;;;;;;;;;;;16.90;99.90;;;;;;8367583;28;19925;-74
2022/04/13 09:56:49;;;;;;;;;;;16.80;99.90;;;;;;8413282;27;19932;-75
2022/04/13 10:00:53;;;;;;;;;;;16.70;99.90;;;;;;8378567;28;19932;-74
2022/04/13 10:04:55;;;;;;;;;;;16.80;99.90;;;;;;8417826;27;19924;-75
2022/04/13 10:09:04;;;;;;;;;;;16.80;99.90;;;;;;8384441;28;19931;-74
2022/04/13 10:13:06;;;;;;;;;;;16.80;99.90;;;;;;8370306;28;19987;-75
2022/04/13 10:17:08;;;;;;;;;;;16.80;99.90;;;;;;8384705;28;19924;-75
2022/04/13 10:21:10;;;;;;;;;;;16.80;99.90;;;;;;8386995;28;19924;-75
2022/04/13 10:25:20;;;;;;;;;;;16.80;99.90;;;;;;8379539;28;19924;-75
2022/04/13 10:29:25;;;;;;;;;;;16.90;99.90;;;;;;8385422;28;19955;-74
2022/04/13 10:33:27;;;;;;;;;;;17.00;99.90;;;;;;8380658;28;19925;-74
2022/04/13 10:37:29;;;;;;;;;;;17.00;99.90;;;;;;8378364;28;20011;-74
2022/04/13 10:41:30;;;;;;;;;;;17.10;99.90;;;;;;8377777;28;19924;-75
2022/04/13 10:45:37;;;;;;;;;;;17.20;99.90;;;;;;8384971;28;20284;-74
2022/04/13 10:49:46;;;;;;;;;;;17.20;99.90;;;;;;8382761;28;19939;-75
2022/04/13 10:53:50;;;;;;;;;;;17.20;99.90;;;;;;8387405;28;19925;-75
2022/04/13 10:57:53;;;;;;;;;;;17.30;99.90;;;;;;8381360;28;20329;-74
2022/04/13 11:02:02;;;;;;;;;;;17.40;99.90;;;;;;8374998;28;19924;-74
2022/04/13 11:06:05;;;;;;;;;;;17.30;99.90;;;;;;8383464;28;19924;-74
2022/04/13 11:10:11;;;;;;;;;;;17.30;99.90;;;;;;8376117;28;19929;-75
2022/04/13 11:14:17;;;;;;;;;;;17.30;99.90;;;;;;8385133;28;19939;-74
2022/04/13 11:18:20;;;;;;;;;;;17.20;99.90;;;;;;8374039;28;19928;-75
2022/04/13 11:22:21;;;;;;;;;;;17.00;99.90;;;;;;8383342;28;19928;-74
2022/04/13 11:26:27;;;;;;;;;;;16.80;99.90;;;;;;8381920;28;19925;-74
2022/04/13 11:30:29;;;;;;;;;;;16.70;99.90;;;;;;8382757;28;19929;-75
2022/04/13 11:34:35;;;;;;;;;;;16.60;99.90;;;;;;8359011;28;19933;-75
2022/04/13 11:38:37;;;;;;;;;;;16.50;99.90;;;;;;8381830;28;19932;-74
2022/04/13 11:42:38;;;;;;;;;;;16.50;99.90;;;;;;8381902;28;20383;-74
2022/04/13 11:46:41;;;;;;;;;;;16.40;99.90;;;;;;8384261;28;19955;-74
2022/04/13 11:50:43;;;;;;;;;;;16.30;99.90;;;;;;8385351;28;20383;-75
2022/04/13 11:54:46;;;;;;;;;;;16.30;99.90;;;;;;8382238;28;19932;-75
2022/04/13 11:58:47;;;;;;;;;;;16.30;99.90;;;;;;8381734;28;20019;-74
2022/04/13 12:02:49;;;;;;;;;;;16.30;99.90;;;;;;8386640;28;19928;-75
2022/04/13 12:06:51;;;;;;;;;;;16.20;99.90;;;;;;8376434;28;19932;-75
2022/04/13 12:10:59;;;;;;;;;;;16.10;99.90;;;;;;8369533;28;19932;-75
2022/04/13 12:15:01;;;;;;;;;;;16.00;99.90;;;;;;8386185;28;19939;-75
2022/04/13 12:19:10;;;;;;;;;;;15.90;99.90;;;;;;8372018;28;19924;-75
2022/04/13 12:23:20;;;;;;;;;;;15.70;99.90;;;;;;8370735;28;19940;-75
2022/04/13 12:27:23;;;;;;;;;;;15.60;99.90;;;;;;8379369;28;19932;-75
2022/04/13 12:31:27;;;;;;;;;;;15.60;99.90;;;;;;8380901;28;19932;-74
2022/04/13 12:35:29;;;;;;;;;;;15.50;99.90;;;;;;8384467;28;19928;-74
2022/04/13 12:39:32;;;;;;;;;;;15.50;99.90;;;;;;8403369;28;19924;-74
2022/04/13 12:43:34;;;;;;;;;;;15.40;99.90;;;;;;8393924;28;19931;-74
2022/04/13 12:47:43;;;;;;;;;;;15.40;99.90;;;;;;8401338;28;19936;-74
2022/04/13 12:51:45;;;;;;;;;;;15.50;99.90;;;;;;8396759;28;19924;-74
2022/04/13 12:55:50;;;;;;;;;;;15.60;99.90;;;;;;8396766;28;19928;-74
2022/04/13 12:59:52;;;;;;;;;;;15.80;99.90;;;;;;8386431;28;19932;-74
2022/04/13 13:03:54;;;;;;;;;;;16.10;99.90;;;;;;8366652;28;19936;-75
2022/04/13 13:07:56;;;;;;;;;;;16.50;99.90;;;;;;8372585;28;19933;-74
2022/04/13 13:12:02;;;;;;;;;;;16.70;99.90;;;;;;8369658;28;19939;-74
2022/04/13 13:16:04;;;;;;;;;;;16.80;99.90;;;;;;8367974;28;19928;-74
2022/04/13 13:20:07;;;;;;;;;;;16.90;99.90;;;;;;8356849;28;19925;-74
2022/04/13 13:24:09;;;;;;;;;;;17.10;99.90;;;;;;8365945;28;20273;-74
2022/04/13 13:28:11;;;;;;;;;;;17.10;99.90;;;;;;8366643;28;19947;-74
2022/04/13 13:32:13;;;;;;;;;;;17.20;99.90;;;;;;8364680;28;20308;-74
2022/04/13 13:36:15;;;;;;;;;;;17.20;99.90;;;;;;8370973;28;20856;-74
2022/04/13 13:40:49;;;;;;;;;;;17.20;99.90;;;;;;8363623;28;20368;-74
2022/04/13 13:44:51;;;;;;;;;;;17.30;99.90;;;;;;8348068;28;20018;-74
2022/04/13 13:48:53;;;;;;;;;;;17.40;99.90;;;;;;8364688;28;19924;-75
2022/04/13 13:52:54;;;;;;;;;;;17.60;99.90;;;;;;8373332;28;19939;-74
2022/04/13 13:56:56;;;;;;;;;;;17.60;99.90;;;;;;8372557;28;19933;-74
2022/04/13 14:00:58;;;;;;;;;;;17.50;99.90;;;;;;8373529;28;19929;-74
2022/04/13 14:05:00;;;;;;;;;;;17.30;99.90;;;;;;8374373;28;19939;-74
2022/04/13 14:09:02;;;;;;;;;;;17.20;99.90;;;;;;8372446;28;20031;-74
2022/04/13 14:13:08;;;;;;;;;;;17.20;99.90;;;;;;8372134;28;19928;-74
2022/04/13 14:17:09;;;;;;;;;;;17.20;99.90;;;;;;8369575;28;19929;-74
2022/04/13 14:21:11;;;;;;;;;;;17.20;99.90;;;;;;8371541;28;19931;-74
2022/04/13 14:25:13;;;;;;;;;;;17.30;99.90;;;;;;8372537;28;19936;-74
2022/04/13 14:29:17;;;;;;;;;;;17.40;99.90;;;;;;8370161;28;20029;-74
2022/04/13 14:33:19;;;;;;;;;;;17.50;99.90;;;;;;8374201;28;19976;-75
2022/04/13 14:37:21;;;;;;;;;;;17.60;99.90;;;;;;8371985;28;19954;-74
2022/04/13 14:41:23;;;;;;;;;;;17.70;99.90;;;;;;8370937;28;19924;-74
2022/04/13 14:45:24;;;;;;;;;;;17.70;99.90;;;;;;8367380;28;19939;-74
2022/04/13 14:49:26;;;;;;;;;;;17.70;99.90;;;;;;8371865;28;19989;-74
2022/04/13 14:53:28;;;;;;;;;;;17.80;99.90;;;;;;8378240;28;19925;-74
2022/04/13 14:57:30;;;;;;;;;;;17.90;99.90;;;;;;8375039;28;19938;-74
2022/04/13 15:01:31;;;;;;;;;;;18.00;99.90;;;;;;8371669;28;19928;-74
2022/04/13 15:05:33;;;;;;;;;;;18.00;99.90;;;;;;8368639;28;20328;-74
2022/04/13 15:09:35;;;;;;;;;;;18.00;99.90;;;;;;8370542;28;19931;-74
2022/04/13 15:13:37;;;;;;;;;;;17.90;99.90;;;;;;8370148;28;20293;-74
2022/04/13 15:17:39;;;;;;;;;;;17.90;99.90;;;;;;8369915;28;19958;-74
2022/04/13 15:21:40;;;;;;;;;;;17.90;99.90;;;;;;8371704;28;20317;-74
2022/04/13 15:25:42;;;;;;;;;;;18.00;99.90;;;;;;8377394;28;19936;-74
2022/04/13 15:29:44;;;;;;;;;;;18.10;99.90;;;;;;8377480;28;20651;-74
2022/04/13 15:33:46;;;;;;;;;;;18.00;99.90;;;;;;8376400;28;19936;-74
2022/04/13 15:37:48;;;;;;;;;;;17.90;99.90;;;;;;8376166;28;19932;-74
2022/04/13 15:41:50;;;;;;;;;;;17.70;99.90;;;;;;8375369;28;19936;-74
2022/04/13 15:45:52;;;;;;;;;;;17.70;99.90;;;;;;8377180;28;19925;-74
2022/04/13 15:49:54;;;;;;;;;;;17.70;99.90;;;;;;8376528;28;20991;-74
2022/04/13 15:53:55;;;;;;;;;;;17.80;99.90;;;;;;8373116;28;20066;-74
2022/04/13 15:58:01;;;;;;;;;;;17.90;99.90;;;;;;8376925;28;20019;-74
2022/04/13 16:02:11;;;;;;;;;;;17.90;99.90;;;;;;8377570;28;19925;-74
2022/04/13 16:06:13;;;;;;;;;;;17.80;99.90;;;;;;8376416;28;19931;-74
2022/04/13 16:10:14;;;;;;;;;;;17.60;99.90;;;;;;8375048;28;19941;-74
2022/04/13 16:14:16;;;;;;;;;;;17.40;99.90;;;;;;8376077;28;19929;-74
2022/04/13 16:18:18;;;;;;;;;;;17.40;99.90;;;;;;8373834;28;20402;-74
2022/04/13 16:22:22;;;;;;;;;;;17.30;99.90;;;;;;8410028;27;19955;-74
2022/04/13 16:26:24;;;;;;;;;;;17.20;99.90;;;;;;8373567;28;20345;-74
2022/04/13 16:30:26;;;;;;;;;;;17.00;99.90;;;;;;8380597;28;19947;-74
2022/04/13 16:34:27;;;;;;;;;;;16.90;99.90;;;;;;8372438;28;19925;-74
2022/04/13 16:38:31;;;;;;;;;;;16.80;99.90;;;;;;8375493;28;19925;-74
2022/04/13 16:42:35;;;;;;;;;;;16.70;99.90;;;;;;8377098;28;19928;-74
2022/04/13 16:46:37;;;;;;;;;;;16.60;99.90;;;;;;8377169;28;19925;-74
2022/04/13 16:50:38;;;;;;;;;;;16.50;99.90;;;;;;8379024;28;19946;-74
2022/04/13 16:54:40;;;;;;;;;;;16.50;99.90;;;;;;8368270;28;19939;-74
2022/04/13 16:58:42;;;;;;;;;;;16.50;99.90;;;;;;8372929;28;19947;-74
2022/04/13 17:02:43;;;;;;;;;;;16.50;99.90;;;;;;8371584;28;19929;-74
2022/04/13 17:06:46;;;;;;;;;;;16.50;99.90;;;;;;8373616;28;19980;-74
2022/04/13 17:10:47;;;;;;;;;;;16.50;99.90;;;;;;8382914;28;19928;-74
2022/04/13 17:14:49;;;;;;;;;;;16.50;99.90;;;;;;8372496;28;19928;-74
2022/04/13 17:18:52;;;;;;;;;;;16.40;99.90;;;;;;8377097;28;20012;-74
2022/04/13 17:22:55;;;;;;;;;;;16.30;99.90;;;;;;8373767;28;20463;-74
2022/04/13 17:26:57;;;;;;;;;;;16.30;99.90;;;;;;8374557;28;19925;-74
2022/04/13 17:30:58;;;;;;;;;;;16.30;99.90;;;;;;8375231;28;19925;-74
2022/04/13 17:35:00;;;;;;;;;;;16.20;99.90;;;;;;8378362;28;20329;-75
2022/04/13 17:39:03;;;;;;;;;;;16.20;99.90;;;;;;8370949;28;20267;-74
2022/04/13 17:43:04;;;;;;;;;;;16.10;99.90;;;;;;8407487;27;20011;-74
2022/04/13 17:47:06;;;;;;;;;;;16.10;99.90;;;;;;8374277;28;19932;-75
2022/04/13 17:51:09;;;;;;;;;;;16.00;99.90;;;;;;8373098;28;19928;-74
2022/04/13 17:55:11;;;;;;;;;;;16.00;99.90;;;;;;8372321;28;19924;-74
2022/04/13 17:59:12;;;;;;;;;;;16.00;99.90;;;;;;8372631;28;19925;-74
2022/04/13 18:03:14;;;;;;;;;;;16.00;99.90;;;;;;8380536;28;19925;-74
2022/04/13 18:07:16;;;;;;;;;;;15.90;99.90;;;;;;8369234;28;19928;-74
2022/04/13 18:11:18;;;;;;;;;;;15.80;99.90;;;;;;8370165;28;19925;-74
2022/04/13 18:15:19;;;;;;;;;;;15.70;99.90;;;;;;8369860;28;19932;-74
2022/04/13 18:19:23;;;;;;;;;;;15.70;99.90;;;;;;8372576;28;19932;-74
2022/04/13 18:23:24;;;;;;;;;;;15.70;99.90;;;;;;8376284;28;20315;-75
2022/04/13 18:27:26;;;;;;;;;;;15.60;99.90;;;;;;8371601;28;20233;-76
2022/04/13 18:31:28;;;;;;;;;;;15.60;99.90;;;;;;8368836;28;20245;-74
2022/04/13 18:35:29;;;;;;;;;;;15.60;99.90;;;;;;8371480;28;19925;-74
2022/04/13 18:39:31;;;;;;;;;;;15.50;99.90;;;;;;8377059;28;20304;-74
2022/04/13 18:43:32;;;;;;;;;;;15.50;99.90;;;;;;8371419;28;19948;-74
2022/04/13 18:47:35;;;;;;;;;;;15.40;99.90;;;;;;8369341;28;20224;-74
2022/04/13 18:51:37;;;;;;;;;;;15.40;99.90;;;;;;8370682;28;20261;-74
2022/04/13 18:55:39;;;;;;;;;;;15.30;99.90;;;;;;8370816;28;19925;-74
2022/04/13 18:59:41;;;;;;;;;;;15.20;99.90;;;;;;8374905;28;19936;-74
2022/04/13 19:03:43;;;;;;;;;;;15.10;99.90;;;;;;8370540;28;20043;-74
2022/04/13 19:07:44;;;;;;;;;;;15.00;99.90;;;;;;8370236;28;19932;-74
2022/04/13 19:11:46;;;;;;;;;;;14.90;99.90;;;;;;8374123;28;20538;-74
2022/04/13 19:15:50;;;;;;;;;;;14.80;99.90;;;;;;8371553;28;20024;-74
2022/04/13 19:19:52;;;;;;;;;;;14.70;99.90;;;;;;8369211;28;19925;-74
2022/04/13 19:23:54;;;;;;;;;;;14.60;99.90;;;;;;8369104;28;20256;-74
2022/04/13 19:27:55;;;;;;;;;;;14.50;99.90;;;;;;8376729;28;20016;-75
2022/04/13 19:31:57;;;;;;;;;;;14.40;99.90;;;;;;8366394;28;19935;-74
2022/04/13 19:35:59;;;;;;;;;;;14.40;99.90;;;;;;8370238;28;19928;-74
2022/04/13 19:40:02;;;;;;;;;;;14.30;99.90;;;;;;8371057;28;20039;-74
2022/04/13 19:44:03;;;;;;;;;;;14.30;99.90;;;;;;8374116;28;19936;-74
2022/04/13 19:48:05;;;;;;;;;;;14.20;99.90;;;;;;8400379;28;20792;-74
2022/04/13 19:52:07;;;;;;;;;;;14.20;99.90;;;;;;8370971;28;20368;-74
2022/04/13 19:56:09;;;;;;;;;;;14.10;99.90;;;;;;8373333;28;19928;-74
2022/04/13 20:00:10;;;;;;;;;;;14.10;99.90;;;;;;8377166;28;19929;-74
2022/04/13 20:04:12;;;;;;;;;;;14.10;99.90;;;;;;8370477;28;19925;-74
2022/04/13 20:08:16;;;;;;;;;;;14.10;99.90;;;;;;8375156;28;20361;-74
2022/04/13 20:12:18;;;;;;;;;;;14.00;99.90;;;;;;8373450;28;19939;-74
2022/04/13 20:16:20;;;;;;;;;;;14.00;99.90;;;;;;8377701;28;19958;-74
2022/04/13 20:20:22;;;;;;;;;;;13.90;99.90;;;;;;8377393;28;19928;-74
2022/04/13 20:24:24;;;;;;;;;;;13.90;99.90;;;;;;8373618;28;19940;-74
2022/04/13 20:28:25;;;;;;;;;;;13.80;99.90;;;;;;8372941;28;20395;-74
2022/04/13 20:32:27;;;;;;;;;;;13.80;99.90;;;;;;8373976;28;19933;-74
2022/04/13 20:36:28;;;;;;;;;;;13.70;99.90;;;;;;8375106;28;19924;-74
2022/04/13 20:40:32;;;;;;;;;;;13.70;99.90;;;;;;8381466;28;19929;-74
2022/04/13 20:44:34;;;;;;;;;;;13.70;99.90;;;;;;8409924;27;20002;-74
2022/04/13 20:48:36;;;;;;;;;;;13.60;99.90;;;;;;8380575;28;20392;-74
2022/04/13 20:52:37;;;;;;;;;;;13.60;99.90;;;;;;8371392;28;19924;-74
2022/04/13 20:56:40;;;;;;;;;;;13.60;99.90;;;;;;8369542;28;20245;-74
2022/04/13 21:00:41;;;;;;;;;;;13.60;99.90;;;;;;8378998;28;19929;-74
2022/04/13 21:04:43;;;;;;;;;;;13.50;99.90;;;;;;8407244;28;19928;-74
2022/04/13 21:08:44;;;;;;;;;;;13.40;99.90;;;;;;8410179;28;19924;-74
2022/04/13 21:12:46;;;;;;;;;;;13.40;99.90;;;;;;8393909;28;19928;-73
2022/04/13 21:16:48;;;;;;;;;;;13.40;99.90;;;;;;8394203;28;19931;-74
2022/04/13 21:20:50;;;;;;;;;;;13.30;99.90;;;;;;8403386;28;19925;-74
2022/04/13 21:24:51;;;;;;;;;;;13.30;99.90;;;;;;8397733;28;19939;-74
2022/04/13 21:28:53;;;;;;;;;;;13.30;99.90;;;;;;8397886;28;19947;-74
2022/04/13 21:32:56;;;;;;;;;;;13.20;99.90;;;;;;8403799;28;19982;-74
2022/04/13 21:36:58;;;;;;;;;;;13.20;99.90;;;;;;8387269;28;19931;-74
2022/04/13 21:40:59;;;;;;;;;;;13.10;99.90;;;;;;8389061;28;19932;-74
2022/04/13 21:45:01;;;;;;;;;;;13.10;99.90;;;;;;8419480;27;20376;-74
2022/04/13 21:49:03;;;;;;;;;;;13.10;99.90;;;;;;8399386;28;20391;-74
2022/04/13 21:53:04;;;;;;;;;;;13.00;99.90;;;;;;8402454;28;20603;-74
2022/04/13 21:57:06;;;;;;;;;;;13.00;99.90;;;;;;8400120;28;19932;-74
2022/04/13 22:01:07;;;;;;;;;;;12.90;99.90;;;;;;8427555;28;20437;-74
2022/04/13 22:05:09;;;;;;;;;;;12.90;99.90;;;;;;8401735;28;19924;-74
2022/04/13 22:09:11;;;;;;;;;;;12.90;99.90;;;;;;8401690;28;19963;-74
2022/04/13 22:13:13;;;;;;;;;;;12.80;99.90;;;;;;8390103;28;19931;-74
2022/04/13 22:17:14;;;;;;;;;;;12.80;99.90;;;;;;8404126;28;20370;-74
2022/04/13 22:21:16;;;;;;;;;;;12.80;99.90;;;;;;8397515;28;19943;-74
2022/04/13 22:25:18;;;;;;;;;;;12.70;99.90;;;;;;8399262;28;19989;-74
2022/04/13 22:29:20;;;;;;;;;;;12.70;99.90;;;;;;8403882;28;20470;-74
2022/04/13 22:33:21;;;;;;;;;;;12.70;99.90;;;;;;8412486;28;19928;-74
2022/04/13 22:37:27;;;;;;;;;;;12.60;99.90;;;;;;8397130;28;20403;-74
2022/04/13 22:41:28;;;;;;;;;;;12.60;99.90;;;;;;8413343;28;19932;-74
2022/04/13 22:45:30;;;;;;;;;;;12.60;99.90;;;;;;8399954;28;19925;-74
2022/04/13 22:49:32;;;;;;;;;;;12.50;99.90;;;;;;8408058;28;19928;-74
2022/04/13 22:53:33;;;;;;;;;;;12.50;99.90;;;;;;8397092;28;19932;-74
2022/04/13 22:57:35;;;;;;;;;;;12.50;99.90;;;;;;8399264;28;19928;-74
2022/04/13 23:01:37;;;;;;;;;;;12.50;99.90;;;;;;8399111;28;20410;-74
2022/04/13 23:05:38;;;;;;;;;;;12.40;99.90;;;;;;8411601;28;20023;-74
2022/04/13 23:09:40;;;;;;;;;;;12.40;99.90;;;;;;8399632;28;19925;-74
2022/04/13 23:13:42;;;;;;;;;;;12.40;99.90;;;;;;8372624;28;19951;-75
2022/04/13 23:17:44;;;;;;;;;;;12.30;99.90;;;;;;8396714;28;19953;-74
2022/04/13 23:21:45;;;;;;;;;;;12.20;99.90;;;;;;8402334;28;19939;-74
2022/04/13 23:25:47;;;;;;;;;;;12.20;99.90;;;;;;8398709;28;20383;-74
2022/04/13 23:29:51;;;;;;;;;;;12.20;99.90;;;;;;8389731;28;19924;-74
2022/04/13 23:33:52;;;;;;;;;;;12.10;99.90;;;;;;8396164;28;19928;-74